sensor_id;sensor_type;location;lat;lon;timestamp;P1;durP1;ratioP1;P2;durP2;ratioP2
69542;SDS011;56762;49.494;11.768;2022-08-19T00:01:48;17.10;;;13.23;;
69542;SDS011;56762;49.494;11.768;2022-08-19T00:04:21;16.40;;;13.65;;
69542;SDS011;56762;49.494;11.768;2022-08-19T00:06:51;17.67;;;12.93;;
69542;SDS011;56762;49.494;11.768;2022-08-19T00:09:20;17.98;;;13.50;;
69542;SDS011;56762;49.494;11.768;2022-08-19T00:11:51;17.77;;;13.63;;
69542;SDS011;56762;49.494;11.768;2022-08-19T00:14:22;17.08;;;12.40;;
69542;SDS011;56762;49.494;11.768;2022-08-19T00:16:51;18.02;;;13.18;;
69542;SDS011;56762;49.494;11.768;2022-08-19T00:19:22;14.23;;;11.53;;
69542;SDS011;56762;49.494;11.768;2022-08-19T00:21:51;16.48;;;13.02;;
69542;SDS011;56762;49.494;11.768;2022-08-19T00:24:20;15.82;;;12.57;;
69542;SDS011;56762;49.494;11.768;2022-08-19T00:26:49;14.07;;;10.70;;
69542;SDS011;56762;49.494;11.768;2022-08-19T00:29:18;16.02;;;12.48;;
69542;SDS011;56762;49.494;11.768;2022-08-19T00:31:51;16.43;;;12.53;;
69542;SDS011;56762;49.494;11.768;2022-08-19T00:34:22;15.43;;;12.60;;
69542;SDS011;56762;49.494;11.768;2022-08-19T00:36:53;18.77;;;13.27;;
69542;SDS011;56762;49.494;11.768;2022-08-19T00:39:21;17.42;;;13.77;;
69542;SDS011;56762;49.494;11.768;2022-08-19T00:41:50;16.92;;;13.40;;
69542;SDS011;56762;49.494;11.768;2022-08-19T00:44:20;19.17;;;14.60;;
69542;SDS011;56762;49.494;11.768;2022-08-19T00:46:53;21.23;;;14.93;;
69542;SDS011;56762;49.494;11.768;2022-08-19T00:49:29;18.30;;;13.30;;
69542;SDS011;56762;49.494;11.768;2022-08-19T00:52:00;18.25;;;13.18;;
69542;SDS011;56762;49.494;11.768;2022-08-19T00:54:31;18.77;;;13.23;;
69542;SDS011;56762;49.494;11.768;2022-08-19T00:57:02;18.73;;;14.70;;
69542;SDS011;56762;49.494;11.768;2022-08-19T00:59:33;18.67;;;14.35;;
69542;SDS011;56762;49.494;11.768;2022-08-19T01:02:22;18.13;;;14.30;;
69542;SDS011;56762;49.494;11.768;2022-08-19T01:04:52;19.05;;;14.35;;
69542;SDS011;56762;49.494;11.768;2022-08-19T01:07:21;17.70;;;13.95;;
69542;SDS011;56762;49.494;11.768;2022-08-19T01:09:49;17.83;;;14.47;;
69542;SDS011;56762;49.494;11.768;2022-08-19T01:12:17;16.63;;;12.68;;
69542;SDS011;56762;49.494;11.768;2022-08-19T01:14:47;17.98;;;12.25;;
69542;SDS011;56762;49.494;11.768;2022-08-19T01:17:16;15.95;;;12.20;;
69542;SDS011;56762;49.494;11.768;2022-08-19T01:19:46;16.35;;;12.40;;
69542;SDS011;56762;49.494;11.768;2022-08-19T01:22:16;17.13;;;12.50;;
69542;SDS011;56762;49.494;11.768;2022-08-19T01:24:58;17.02;;;12.98;;
69542;SDS011;56762;49.494;11.768;2022-08-19T01:27:26;19.20;;;13.75;;
69542;SDS011;56762;49.494;11.768;2022-08-19T01:30:05;15.75;;;11.90;;
69542;SDS011;56762;49.494;11.768;2022-08-19T01:32:34;16.63;;;12.27;;
69542;SDS011;56762;49.494;11.768;2022-08-19T01:35:02;16.60;;;11.97;;
69542;SDS011;56762;49.494;11.768;2022-08-19T01:37:41;16.23;;;11.77;;
69542;SDS011;56762;49.494;11.768;2022-08-19T01:40:11;14.20;;;11.52;;
69542;SDS011;56762;49.494;11.768;2022-08-19T01:42:40;16.95;;;12.95;;
69542;SDS011;56762;49.494;11.768;2022-08-19T01:45:08;16.05;;;11.43;;
69542;SDS011;56762;49.494;11.768;2022-08-19T01:47:37;18.03;;;12.83;;
69542;SDS011;56762;49.494;11.768;2022-08-19T01:50:06;16.40;;;12.10;;
69542;SDS011;56762;49.494;11.768;2022-08-19T01:52:36;14.77;;;11.57;;
69542;SDS011;56762;49.494;11.768;2022-08-19T01:55:05;15.55;;;12.02;;
69542;SDS011;56762;49.494;11.768;2022-08-19T01:57:36;18.20;;;12.63;;
69542;SDS011;56762;49.494;11.768;2022-08-19T02:00:08;16.47;;;11.87;;
69542;SDS011;56762;49.494;11.768;2022-08-19T02:02:38;18.13;;;12.43;;
69542;SDS011;56762;49.494;11.768;2022-08-19T02:05:09;15.77;;;12.30;;
69542;SDS011;56762;49.494;11.768;2022-08-19T02:07:38;15.57;;;11.57;;
69542;SDS011;56762;49.494;11.768;2022-08-19T02:10:09;17.05;;;12.95;;
69542;SDS011;56762;49.494;11.768;2022-08-19T02:12:43;15.00;;;11.47;;
69542;SDS011;56762;49.494;11.768;2022-08-19T02:15:13;13.40;;;10.80;;
69542;SDS011;56762;49.494;11.768;2022-08-19T02:17:41;16.02;;;12.52;;
69542;SDS011;56762;49.494;11.768;2022-08-19T02:20:10;17.23;;;13.13;;
69542;SDS011;56762;49.494;11.768;2022-08-19T02:22:39;16.77;;;12.95;;
69542;SDS011;56762;49.494;11.768;2022-08-19T02:25:09;17.73;;;12.00;;
69542;SDS011;56762;49.494;11.768;2022-08-19T02:27:37;16.70;;;12.52;;
69542;SDS011;56762;49.494;11.768;2022-08-19T02:30:09;17.98;;;13.45;;
69542;SDS011;56762;49.494;11.768;2022-08-19T02:32:39;15.95;;;12.35;;
69542;SDS011;56762;49.494;11.768;2022-08-19T02:35:10;17.92;;;13.10;;
69542;SDS011;56762;49.494;11.768;2022-08-19T02:37:41;16.37;;;12.50;;
69542;SDS011;56762;49.494;11.768;2022-08-19T02:40:26;16.88;;;12.98;;
69542;SDS011;56762;49.494;11.768;2022-08-19T02:42:55;17.63;;;12.63;;
69542;SDS011;56762;49.494;11.768;2022-08-19T02:45:30;15.73;;;11.38;;
69542;SDS011;56762;49.494;11.768;2022-08-19T02:48:00;20.30;;;13.23;;
69542;SDS011;56762;49.494;11.768;2022-08-19T02:50:38;19.60;;;12.40;;
69542;SDS011;56762;49.494;11.768;2022-08-19T02:53:18;17.20;;;11.32;;
69542;SDS011;56762;49.494;11.768;2022-08-19T02:55:49;19.77;;;13.32;;
69542;SDS011;56762;49.494;11.768;2022-08-19T02:58:18;16.95;;;12.10;;
69542;SDS011;56762;49.494;11.768;2022-08-19T03:00:50;18.17;;;12.63;;
69542;SDS011;56762;49.494;11.768;2022-08-19T03:03:20;20.03;;;13.37;;
69542;SDS011;56762;49.494;11.768;2022-08-19T03:05:48;17.10;;;12.52;;
69542;SDS011;56762;49.494;11.768;2022-08-19T03:08:22;17.45;;;12.70;;
69542;SDS011;56762;49.494;11.768;2022-08-19T03:10:52;17.42;;;12.48;;
69542;SDS011;56762;49.494;11.768;2022-08-19T03:13:22;16.35;;;12.02;;
69542;SDS011;56762;49.494;11.768;2022-08-19T03:15:52;19.50;;;13.73;;
69542;SDS011;56762;49.494;11.768;2022-08-19T03:18:20;21.20;;;12.95;;
69542;SDS011;56762;49.494;11.768;2022-08-19T03:20:49;20.58;;;13.32;;
69542;SDS011;56762;49.494;11.768;2022-08-19T03:23:21;21.67;;;14.18;;
69542;SDS011;56762;49.494;11.768;2022-08-19T03:25:50;19.05;;;13.10;;
69542;SDS011;56762;49.494;11.768;2022-08-19T03:28:29;20.77;;;14.57;;
69542;SDS011;56762;49.494;11.768;2022-08-19T03:30:59;20.42;;;14.02;;
69542;SDS011;56762;49.494;11.768;2022-08-19T03:33:50;22.35;;;14.68;;
69542;SDS011;56762;49.494;11.768;2022-08-19T03:36:18;19.13;;;14.25;;
69542;SDS011;56762;49.494;11.768;2022-08-19T03:38:49;18.63;;;12.70;;
69542;SDS011;56762;49.494;11.768;2022-08-19T03:41:26;22.47;;;14.43;;
69542;SDS011;56762;49.494;11.768;2022-08-19T03:44:11;23.65;;;15.70;;
69542;SDS011;56762;49.494;11.768;2022-08-19T03:46:45;20.77;;;13.82;;
69542;SDS011;56762;49.494;11.768;2022-08-19T03:49:14;20.98;;;14.00;;
69542;SDS011;56762;49.494;11.768;2022-08-19T03:51:45;24.42;;;14.82;;
69542;SDS011;56762;49.494;11.768;2022-08-19T03:54:17;19.33;;;12.40;;
69542;SDS011;56762;49.494;11.768;2022-08-19T03:56:49;17.90;;;12.23;;
69542;SDS011;56762;49.494;11.768;2022-08-19T03:59:22;20.10;;;13.35;;
69542;SDS011;56762;49.494;11.768;2022-08-19T04:01:54;17.45;;;12.20;;
69542;SDS011;56762;49.494;11.768;2022-08-19T04:04:24;21.83;;;15.40;;
69542;SDS011;56762;49.494;11.768;2022-08-19T04:06:54;17.77;;;12.07;;
69542;SDS011;56762;49.494;11.768;2022-08-19T04:09:23;22.05;;;14.45;;
69542;SDS011;56762;49.494;11.768;2022-08-19T04:11:53;18.70;;;12.73;;
69542;SDS011;56762;49.494;11.768;2022-08-19T04:14:24;20.25;;;13.55;;
69542;SDS011;56762;49.494;11.768;2022-08-19T04:16:54;18.30;;;12.45;;
69542;SDS011;56762;49.494;11.768;2022-08-19T04:19:23;19.63;;;12.83;;
69542;SDS011;56762;49.494;11.768;2022-08-19T04:21:51;20.02;;;13.63;;
69542;SDS011;56762;49.494;11.768;2022-08-19T04:24:21;19.98;;;12.77;;
69542;SDS011;56762;49.494;11.768;2022-08-19T04:26:50;22.02;;;13.82;;
69542;SDS011;56762;49.494;11.768;2022-08-19T04:29:21;17.83;;;11.70;;
69542;SDS011;56762;49.494;11.768;2022-08-19T04:31:51;18.50;;;12.33;;
69542;SDS011;56762;49.494;11.768;2022-08-19T04:34:22;17.80;;;12.13;;
69542;SDS011;56762;49.494;11.768;2022-08-19T04:36:52;19.02;;;11.82;;
69542;SDS011;56762;49.494;11.768;2022-08-19T04:39:24;18.15;;;11.85;;
69542;SDS011;56762;49.494;11.768;2022-08-19T04:42:15;20.23;;;13.15;;
69542;SDS011;56762;49.494;11.768;2022-08-19T04:45:02;20.33;;;12.63;;
69542;SDS011;56762;49.494;11.768;2022-08-19T04:47:37;19.42;;;12.23;;
69542;SDS011;56762;49.494;11.768;2022-08-19T04:50:19;18.08;;;11.30;;
69542;SDS011;56762;49.494;11.768;2022-08-19T04:52:49;18.70;;;11.55;;
69542;SDS011;56762;49.494;11.768;2022-08-19T04:55:19;19.65;;;12.05;;
69542;SDS011;56762;49.494;11.768;2022-08-19T04:57:47;18.27;;;11.53;;
69542;SDS011;56762;49.494;11.768;2022-08-19T05:00:17;15.43;;;10.50;;
69542;SDS011;56762;49.494;11.768;2022-08-19T05:02:44;16.40;;;10.70;;
69542;SDS011;56762;49.494;11.768;2022-08-19T05:05:13;16.27;;;10.70;;
69542;SDS011;56762;49.494;11.768;2022-08-19T05:07:42;19.38;;;12.38;;
69542;SDS011;56762;49.494;11.768;2022-08-19T05:10:09;18.03;;;11.00;;
69542;SDS011;56762;49.494;11.768;2022-08-19T05:12:37;16.10;;;10.60;;
69542;SDS011;56762;49.494;11.768;2022-08-19T05:15:06;17.15;;;11.40;;
69542;SDS011;56762;49.494;11.768;2022-08-19T05:17:35;17.45;;;12.52;;
69542;SDS011;56762;49.494;11.768;2022-08-19T05:20:05;20.10;;;12.07;;
69542;SDS011;56762;49.494;11.768;2022-08-19T05:22:53;15.47;;;10.60;;
69542;SDS011;56762;49.494;11.768;2022-08-19T05:25:21;16.88;;;11.23;;
69542;SDS011;56762;49.494;11.768;2022-08-19T05:27:52;17.75;;;11.88;;
69542;SDS011;56762;49.494;11.768;2022-08-19T05:30:19;14.35;;;10.15;;
69542;SDS011;56762;49.494;11.768;2022-08-19T05:33:07;18.70;;;12.43;;
69542;SDS011;56762;49.494;11.768;2022-08-19T05:35:38;17.27;;;11.53;;
69542;SDS011;56762;49.494;11.768;2022-08-19T05:38:08;13.57;;;10.00;;
69542;SDS011;56762;49.494;11.768;2022-08-19T05:40:37;14.70;;;10.52;;
69542;SDS011;56762;49.494;11.768;2022-08-19T05:43:06;15.30;;;10.43;;
69542;SDS011;56762;49.494;11.768;2022-08-19T05:45:37;17.33;;;11.07;;
69542;SDS011;56762;49.494;11.768;2022-08-19T05:48:09;15.70;;;9.53;;
69542;SDS011;56762;49.494;11.768;2022-08-19T05:50:38;17.02;;;11.15;;
69542;SDS011;56762;49.494;11.768;2022-08-19T05:53:10;14.75;;;9.82;;
69542;SDS011;56762;49.494;11.768;2022-08-19T05:55:39;13.02;;;9.20;;
69542;SDS011;56762;49.494;11.768;2022-08-19T05:58:09;13.85;;;9.82;;
69542;SDS011;56762;49.494;11.768;2022-08-19T06:00:37;13.13;;;8.90;;
69542;SDS011;56762;49.494;11.768;2022-08-19T06:03:06;13.32;;;9.05;;
69542;SDS011;56762;49.494;11.768;2022-08-19T06:05:39;11.25;;;8.32;;
69542;SDS011;56762;49.494;11.768;2022-08-19T06:08:18;13.05;;;9.25;;
69542;SDS011;56762;49.494;11.768;2022-08-19T06:11:11;14.02;;;9.38;;
69542;SDS011;56762;49.494;11.768;2022-08-19T06:13:42;16.50;;;10.80;;
69542;SDS011;56762;49.494;11.768;2022-08-19T06:16:11;16.75;;;11.85;;
69542;SDS011;56762;49.494;11.768;2022-08-19T06:18:39;16.30;;;10.85;;
69542;SDS011;56762;49.494;11.768;2022-08-19T06:21:07;16.80;;;11.68;;
69542;SDS011;56762;49.494;11.768;2022-08-19T06:23:40;15.88;;;11.45;;
69542;SDS011;56762;49.494;11.768;2022-08-19T06:26:11;17.97;;;12.80;;
69542;SDS011;56762;49.494;11.768;2022-08-19T06:28:40;17.10;;;11.75;;
69542;SDS011;56762;49.494;11.768;2022-08-19T06:31:13;16.17;;;12.07;;
69542;SDS011;56762;49.494;11.768;2022-08-19T06:33:43;14.30;;;10.98;;
69542;SDS011;56762;49.494;11.768;2022-08-19T06:36:16;14.57;;;11.05;;
69542;SDS011;56762;49.494;11.768;2022-08-19T06:38:54;12.90;;;9.40;;
69542;SDS011;56762;49.494;11.768;2022-08-19T06:41:23;12.23;;;8.88;;
69542;SDS011;56762;49.494;11.768;2022-08-19T06:43:51;11.48;;;8.77;;
69542;SDS011;56762;49.494;11.768;2022-08-19T06:46:20;12.93;;;8.95;;
69542;SDS011;56762;49.494;11.768;2022-08-19T06:48:49;13.23;;;9.70;;
69542;SDS011;56762;49.494;11.768;2022-08-19T06:51:20;12.37;;;8.80;;
69542;SDS011;56762;49.494;11.768;2022-08-19T06:53:52;13.07;;;8.45;;
69542;SDS011;56762;49.494;11.768;2022-08-19T06:56:22;11.13;;;8.80;;
69542;SDS011;56762;49.494;11.768;2022-08-19T06:58:56;11.40;;;8.07;;
69542;SDS011;56762;49.494;11.768;2022-08-19T07:01:25;12.38;;;8.88;;
69542;SDS011;56762;49.494;11.768;2022-08-19T07:03:52;13.60;;;9.17;;
69542;SDS011;56762;49.494;11.768;2022-08-19T07:06:20;14.43;;;10.27;;
69542;SDS011;56762;49.494;11.768;2022-08-19T07:09:10;14.05;;;10.07;;
69542;SDS011;56762;49.494;11.768;2022-08-19T07:11:44;13.25;;;10.02;;
69542;SDS011;56762;49.494;11.768;2022-08-19T07:14:14;13.63;;;10.40;;
69542;SDS011;56762;49.494;11.768;2022-08-19T07:16:45;16.00;;;11.00;;
69542;SDS011;56762;49.494;11.768;2022-08-19T07:19:16;16.50;;;10.85;;
69542;SDS011;56762;49.494;11.768;2022-08-19T07:21:48;14.57;;;10.43;;
69542;SDS011;56762;49.494;11.768;2022-08-19T07:24:21;14.65;;;10.35;;
69542;SDS011;56762;49.494;11.768;2022-08-19T07:26:52;13.45;;;9.75;;
69542;SDS011;56762;49.494;11.768;2022-08-19T07:29:23;15.43;;;10.23;;
69542;SDS011;56762;49.494;11.768;2022-08-19T07:31:54;13.80;;;10.02;;
69542;SDS011;56762;49.494;11.768;2022-08-19T07:34:26;14.50;;;10.43;;
69542;SDS011;56762;49.494;11.768;2022-08-19T07:36:55;16.67;;;11.77;;
69542;SDS011;56762;49.494;11.768;2022-08-19T07:39:26;16.05;;;11.35;;
69542;SDS011;56762;49.494;11.768;2022-08-19T07:41:57;14.90;;;10.93;;
69542;SDS011;56762;49.494;11.768;2022-08-19T07:44:26;16.30;;;11.30;;
69542;SDS011;56762;49.494;11.768;2022-08-19T07:46:55;14.93;;;11.15;;
69542;SDS011;56762;49.494;11.768;2022-08-19T07:49:26;16.85;;;10.82;;
69542;SDS011;56762;49.494;11.768;2022-08-19T07:51:56;13.55;;;10.25;;
69542;SDS011;56762;49.494;11.768;2022-08-19T07:54:29;14.37;;;10.33;;
69542;SDS011;56762;49.494;11.768;2022-08-19T07:57:00;13.00;;;9.60;;
69542;SDS011;56762;49.494;11.768;2022-08-19T07:59:29;15.38;;;10.88;;
69542;SDS011;56762;49.494;11.768;2022-08-19T08:01:58;14.48;;;9.02;;
69542;SDS011;56762;49.494;11.768;2022-08-19T08:04:27;11.68;;;9.45;;
69542;SDS011;56762;49.494;11.768;2022-08-19T08:07:13;13.10;;;9.30;;
69542;SDS011;56762;49.494;11.768;2022-08-19T08:10:12;13.40;;;9.48;;
69542;SDS011;56762;49.494;11.768;2022-08-19T08:12:46;12.48;;;9.27;;
69542;SDS011;56762;49.494;11.768;2022-08-19T08:15:34;10.57;;;8.57;;
69542;SDS011;56762;49.494;11.768;2022-08-19T08:18:09;10.50;;;6.93;;
69542;SDS011;56762;49.494;11.768;2022-08-19T08:20:37;11.10;;;8.10;;
69542;SDS011;56762;49.494;11.768;2022-08-19T08:23:05;10.98;;;7.65;;
69542;SDS011;56762;49.494;11.768;2022-08-19T08:25:54;10.00;;;7.60;;
69542;SDS011;56762;49.494;11.768;2022-08-19T08:28:25;10.77;;;8.07;;
69542;SDS011;56762;49.494;11.768;2022-08-19T08:30:56;11.15;;;7.38;;
69542;SDS011;56762;49.494;11.768;2022-08-19T08:33:26;10.80;;;8.00;;
69542;SDS011;56762;49.494;11.768;2022-08-19T08:35:59;10.38;;;8.05;;
69542;SDS011;56762;49.494;11.768;2022-08-19T08:38:29;13.05;;;9.23;;
69542;SDS011;56762;49.494;11.768;2022-08-19T08:41:09;9.68;;;7.75;;
69542;SDS011;56762;49.494;11.768;2022-08-19T08:43:45;9.93;;;7.22;;
69542;SDS011;56762;49.494;11.768;2022-08-19T08:46:18;12.13;;;7.70;;
69542;SDS011;56762;49.494;11.768;2022-08-19T08:49:01;9.02;;;7.07;;
69542;SDS011;56762;49.494;11.768;2022-08-19T08:51:37;9.13;;;6.90;;
69542;SDS011;56762;49.494;11.768;2022-08-19T08:54:14;9.40;;;7.13;;
69542;SDS011;56762;49.494;11.768;2022-08-19T08:56:48;10.93;;;8.27;;
69542;SDS011;56762;49.494;11.768;2022-08-19T08:59:19;11.57;;;8.10;;
69542;SDS011;56762;49.494;11.768;2022-08-19T09:01:48;11.00;;;8.13;;
69542;SDS011;56762;49.494;11.768;2022-08-19T09:04:17;11.63;;;8.63;;
69542;SDS011;56762;49.494;11.768;2022-08-19T09:06:51;8.93;;;6.93;;
69542;SDS011;56762;49.494;11.768;2022-08-19T09:09:24;9.90;;;7.47;;
69542;SDS011;56762;49.494;11.768;2022-08-19T09:12:03;10.77;;;8.27;;
69542;SDS011;56762;49.494;11.768;2022-08-19T09:14:39;10.50;;;7.82;;
69542;SDS011;56762;49.494;11.768;2022-08-19T09:17:16;12.73;;;8.88;;
69542;SDS011;56762;49.494;11.768;2022-08-19T09:19:49;13.70;;;8.52;;
69542;SDS011;56762;49.494;11.768;2022-08-19T09:22:19;11.27;;;8.23;;
69542;SDS011;56762;49.494;11.768;2022-08-19T09:24:53;11.17;;;8.20;;
69542;SDS011;56762;49.494;11.768;2022-08-19T09:27:25;10.77;;;8.18;;
69542;SDS011;56762;49.494;11.768;2022-08-19T09:30:10;11.55;;;8.40;;
69542;SDS011;56762;49.494;11.768;2022-08-19T09:32:41;12.50;;;8.27;;
69542;SDS011;56762;49.494;11.768;2022-08-19T09:35:09;11.63;;;7.80;;
69542;SDS011;56762;49.494;11.768;2022-08-19T09:37:38;12.17;;;8.63;;
69542;SDS011;56762;49.494;11.768;2022-08-19T09:40:09;12.20;;;8.73;;
69542;SDS011;56762;49.494;11.768;2022-08-19T09:42:42;10.60;;;7.70;;
69542;SDS011;56762;49.494;11.768;2022-08-19T09:45:18;10.52;;;7.60;;
69542;SDS011;56762;49.494;11.768;2022-08-19T09:47:48;8.95;;;7.07;;
69542;SDS011;56762;49.494;11.768;2022-08-19T09:50:20;10.67;;;7.73;;
69542;SDS011;56762;49.494;11.768;2022-08-19T09:52:50;10.93;;;7.30;;
69542;SDS011;56762;49.494;11.768;2022-08-19T09:55:23;10.18;;;6.95;;
69542;SDS011;56762;49.494;11.768;2022-08-19T09:58:00;8.85;;;5.75;;
69542;SDS011;56762;49.494;11.768;2022-08-19T10:00:29;9.55;;;6.80;;
69542;SDS011;56762;49.494;11.768;2022-08-19T10:02:57;10.50;;;6.83;;
69542;SDS011;56762;49.494;11.768;2022-08-19T10:05:26;11.50;;;8.40;;
69542;SDS011;56762;49.494;11.768;2022-08-19T10:08:14;11.18;;;8.23;;
69542;SDS011;56762;49.494;11.768;2022-08-19T10:10:42;11.10;;;7.65;;
69542;SDS011;56762;49.494;11.768;2022-08-19T10:13:15;10.18;;;7.53;;
69542;SDS011;56762;49.494;11.768;2022-08-19T10:15:48;11.17;;;7.13;;
69542;SDS011;56762;49.494;11.768;2022-08-19T10:18:18;9.68;;;7.00;;
69542;SDS011;56762;49.494;11.768;2022-08-19T10:20:48;10.35;;;7.60;;
69542;SDS011;56762;49.494;11.768;2022-08-19T10:23:18;10.40;;;6.93;;
69542;SDS011;56762;49.494;11.768;2022-08-19T10:25:47;9.88;;;6.90;;
69542;SDS011;56762;49.494;11.768;2022-08-19T10:28:17;10.97;;;7.10;;
69542;SDS011;56762;49.494;11.768;2022-08-19T10:30:45;9.93;;;6.53;;
69542;SDS011;56762;49.494;11.768;2022-08-19T10:33:13;10.68;;;8.00;;
69542;SDS011;56762;49.494;11.768;2022-08-19T10:36:02;9.90;;;7.05;;
69542;SDS011;56762;49.494;11.768;2022-08-19T10:38:31;10.77;;;7.75;;
69542;SDS011;56762;49.494;11.768;2022-08-19T10:41:06;9.60;;;6.67;;
69542;SDS011;56762;49.494;11.768;2022-08-19T10:43:37;11.15;;;7.22;;
69542;SDS011;56762;49.494;11.768;2022-08-19T10:46:06;9.68;;;6.95;;
69542;SDS011;56762;49.494;11.768;2022-08-19T10:48:39;11.13;;;6.88;;
69542;SDS011;56762;49.494;11.768;2022-08-19T10:51:08;9.27;;;7.40;;
69542;SDS011;56762;49.494;11.768;2022-08-19T10:53:54;12.33;;;8.00;;
69542;SDS011;56762;49.494;11.768;2022-08-19T10:56:23;9.57;;;7.05;;
69542;SDS011;56762;49.494;11.768;2022-08-19T10:59:09;10.30;;;7.60;;
69542;SDS011;56762;49.494;11.768;2022-08-19T11:01:41;10.00;;;7.38;;
69542;SDS011;56762;49.494;11.768;2022-08-19T11:04:10;9.98;;;7.30;;
69542;SDS011;56762;49.494;11.768;2022-08-19T11:06:40;10.93;;;7.40;;
69542;SDS011;56762;49.494;11.768;2022-08-19T11:09:09;11.52;;;7.95;;
69542;SDS011;56762;49.494;11.768;2022-08-19T11:11:38;10.07;;;7.70;;
69542;SDS011;56762;49.494;11.768;2022-08-19T11:14:07;10.95;;;7.32;;
69542;SDS011;56762;49.494;11.768;2022-08-19T11:16:37;12.52;;;8.32;;
69542;SDS011;56762;49.494;11.768;2022-08-19T11:19:06;10.63;;;7.93;;
69542;SDS011;56762;49.494;11.768;2022-08-19T11:21:36;9.43;;;6.43;;
69542;SDS011;56762;49.494;11.768;2022-08-19T11:24:07;10.23;;;6.72;;
69542;SDS011;56762;49.494;11.768;2022-08-19T11:26:36;11.25;;;7.78;;
69542;SDS011;56762;49.494;11.768;2022-08-19T11:29:06;11.23;;;8.43;;
69542;SDS011;56762;49.494;11.768;2022-08-19T11:31:40;9.90;;;7.03;;
69542;SDS011;56762;49.494;11.768;2022-08-19T11:34:12;9.05;;;7.10;;
69542;SDS011;56762;49.494;11.768;2022-08-19T11:36:43;10.88;;;8.13;;
69542;SDS011;56762;49.494;11.768;2022-08-19T11:39:15;10.13;;;7.40;;
69542;SDS011;56762;49.494;11.768;2022-08-19T11:41:44;12.48;;;8.75;;
69542;SDS011;56762;49.494;11.768;2022-08-19T11:44:13;11.17;;;8.23;;
69542;SDS011;56762;49.494;11.768;2022-08-19T11:46:44;11.70;;;8.90;;
69542;SDS011;56762;49.494;11.768;2022-08-19T11:49:13;13.27;;;9.15;;
69542;SDS011;56762;49.494;11.768;2022-08-19T11:51:41;11.57;;;8.57;;
69542;SDS011;56762;49.494;11.768;2022-08-19T11:54:11;13.40;;;9.50;;
69542;SDS011;56762;49.494;11.768;2022-08-19T11:56:40;11.23;;;8.43;;
69542;SDS011;56762;49.494;11.768;2022-08-19T11:59:10;12.77;;;8.35;;
69542;SDS011;56762;49.494;11.768;2022-08-19T12:01:40;13.70;;;9.30;;
69542;SDS011;56762;49.494;11.768;2022-08-19T12:04:10;14.95;;;9.23;;
69542;SDS011;56762;49.494;11.768;2022-08-19T12:06:39;14.82;;;10.05;;
69542;SDS011;56762;49.494;11.768;2022-08-19T12:09:08;15.63;;;10.00;;
69542;SDS011;56762;49.494;11.768;2022-08-19T12:11:37;17.42;;;10.77;;
69542;SDS011;56762;49.494;11.768;2022-08-19T12:14:08;17.90;;;11.27;;
69542;SDS011;56762;49.494;11.768;2022-08-19T12:16:40;16.58;;;11.20;;
69542;SDS011;56762;49.494;11.768;2022-08-19T12:19:18;17.38;;;11.95;;
69542;SDS011;56762;49.494;11.768;2022-08-19T12:21:48;19.23;;;11.80;;
69542;SDS011;56762;49.494;11.768;2022-08-19T12:24:16;18.60;;;13.05;;
69542;SDS011;56762;49.494;11.768;2022-08-19T12:26:49;19.67;;;12.65;;
69542;SDS011;56762;49.494;11.768;2022-08-19T12:29:19;21.00;;;13.00;;
69542;SDS011;56762;49.494;11.768;2022-08-19T12:31:55;17.17;;;11.90;;
69542;SDS011;56762;49.494;11.768;2022-08-19T12:34:30;15.47;;;11.37;;
69542;SDS011;56762;49.494;11.768;2022-08-19T12:37:01;18.90;;;12.77;;
69542;SDS011;56762;49.494;11.768;2022-08-19T12:39:36;18.20;;;12.77;;
69542;SDS011;56762;49.494;11.768;2022-08-19T12:42:06;18.13;;;13.02;;
69542;SDS011;56762;49.494;11.768;2022-08-19T12:44:35;18.60;;;12.70;;
69542;SDS011;56762;49.494;11.768;2022-08-19T12:47:06;17.03;;;11.90;;
69542;SDS011;56762;49.494;11.768;2022-08-19T12:49:37;17.92;;;12.73;;
69542;SDS011;56762;49.494;11.768;2022-08-19T12:52:20;15.95;;;11.02;;
69542;SDS011;56762;49.494;11.768;2022-08-19T12:54:49;16.55;;;11.63;;
69542;SDS011;56762;49.494;11.768;2022-08-19T12:57:21;15.55;;;10.93;;
69542;SDS011;56762;49.494;11.768;2022-08-19T12:59:59;19.83;;;12.83;;
69542;SDS011;56762;49.494;11.768;2022-08-19T13:02:30;18.30;;;12.45;;
69542;SDS011;56762;49.494;11.768;2022-08-19T13:05:07;17.52;;;12.43;;
69542;SDS011;56762;49.494;11.768;2022-08-19T13:07:38;17.27;;;12.10;;
69542;SDS011;56762;49.494;11.768;2022-08-19T13:10:08;17.92;;;12.20;;
69542;SDS011;56762;49.494;11.768;2022-08-19T13:12:41;19.20;;;12.37;;
69542;SDS011;56762;49.494;11.768;2022-08-19T13:15:09;20.38;;;12.93;;
69542;SDS011;56762;49.494;11.768;2022-08-19T13:17:40;17.70;;;11.90;;
69542;SDS011;56762;49.494;11.768;2022-08-19T13:20:10;16.33;;;11.27;;
69542;SDS011;56762;49.494;11.768;2022-08-19T13:22:39;16.90;;;11.65;;
69542;SDS011;56762;49.494;11.768;2022-08-19T13:25:07;16.47;;;11.90;;
69542;SDS011;56762;49.494;11.768;2022-08-19T13:27:36;16.40;;;11.70;;
69542;SDS011;56762;49.494;11.768;2022-08-19T13:30:06;16.63;;;12.10;;
69542;SDS011;56762;49.494;11.768;2022-08-19T13:32:53;17.23;;;11.02;;
69542;SDS011;56762;49.494;11.768;2022-08-19T13:35:44;13.80;;;10.07;;
69542;SDS011;56762;49.494;11.768;2022-08-19T13:38:13;15.73;;;9.93;;
69542;SDS011;56762;49.494;11.768;2022-08-19T13:40:43;13.15;;;9.80;;
69542;SDS011;56762;49.494;11.768;2022-08-19T13:43:12;12.52;;;8.70;;
69542;SDS011;56762;49.494;11.768;2022-08-19T13:45:48;10.32;;;7.25;;
69542;SDS011;56762;49.494;11.768;2022-08-19T13:48:22;10.35;;;7.30;;
69542;SDS011;56762;49.494;11.768;2022-08-19T13:50:55;11.90;;;7.50;;
69542;SDS011;56762;49.494;11.768;2022-08-19T13:53:23;10.18;;;7.60;;
69542;SDS011;56762;49.494;11.768;2022-08-19T13:55:51;11.20;;;7.90;;
69542;SDS011;56762;49.494;11.768;2022-08-19T13:58:20;14.27;;;8.52;;
69542;SDS011;56762;49.494;11.768;2022-08-19T14:00:48;12.60;;;8.82;;
69542;SDS011;56762;49.494;11.768;2022-08-19T14:03:16;10.97;;;7.60;;
69542;SDS011;56762;49.494;11.768;2022-08-19T14:05:44;12.20;;;8.93;;
69542;SDS011;56762;49.494;11.768;2022-08-19T14:08:14;16.10;;;10.45;;
69542;SDS011;56762;49.494;11.768;2022-08-19T14:10:42;14.90;;;10.30;;
69542;SDS011;56762;49.494;11.768;2022-08-19T14:13:12;14.63;;;10.13;;
69542;SDS011;56762;49.494;11.768;2022-08-19T14:15:42;16.57;;;10.73;;
69542;SDS011;56762;49.494;11.768;2022-08-19T14:18:10;16.50;;;10.27;;
69542;SDS011;56762;49.494;11.768;2022-08-19T14:20:38;16.88;;;11.43;;
69542;SDS011;56762;49.494;11.768;2022-08-19T14:23:06;15.50;;;10.90;;
69542;SDS011;56762;49.494;11.768;2022-08-19T14:25:35;16.48;;;11.20;;
69542;SDS011;56762;49.494;11.768;2022-08-19T14:28:03;15.17;;;9.90;;
69542;SDS011;56762;49.494;11.768;2022-08-19T14:30:33;18.10;;;10.65;;
69542;SDS011;56762;49.494;11.768;2022-08-19T14:33:04;15.25;;;10.32;;
69542;SDS011;56762;49.494;11.768;2022-08-19T14:35:35;14.98;;;9.32;;
69542;SDS011;56762;49.494;11.768;2022-08-19T14:38:04;17.23;;;10.85;;
69542;SDS011;56762;49.494;11.768;2022-08-19T14:40:34;14.87;;;9.50;;